Terminal Aerodrome Forecast
Issued by NWS Sioux Falls, SD

Home | Current Version | Previous Version | Graphics & Text | Print | Product List | Glossary On
Versions: 1 2 3 4 5 6 7 8 9 10 11 12 13 14 15 16 17 18 19 20 21 22
000
FTUS43 KFSD 061339 AAB
TAFHON
TAF AMD
KHON 061339Z 0614/0712 36012G20KT 1 1/2SM BR SCT030 BKN090
      TEMPO 0614/0615 4SM BR BKN030
     FM061500 36014G21KT P6SM SCT015 BKN120
     FM061600 36016G23KT P6SM SCT035
     FM070100 36005KT P6SM SKC=

USA.gov is the U.S. government's official web portal to all federal, state and local government web resources and services.